sensor_id;sensor_type;location;lat;lon;timestamp;temperature;humidity
14519;DHT22;7346;50.846;4.388;2022-10-16T00:00:38;15.10;99.90
14519;DHT22;7346;50.846;4.388;2022-10-16T00:03:06;15.00;99.90
14519;DHT22;7346;50.846;4.388;2022-10-16T00:05:37;15.00;99.90
14519;DHT22;7346;50.846;4.388;2022-10-16T00:08:06;15.00;99.90
14519;DHT22;7346;50.846;4.388;2022-10-16T00:10:33;15.10;99.90
14519;DHT22;7346;50.846;4.388;2022-10-16T00:13:01;15.10;99.90
14519;DHT22;7346;50.846;4.388;2022-10-16T00:15:28;15.00;99.90
14519;DHT22;7346;50.846;4.388;2022-10-16T00:17:55;15.10;99.90
14519;DHT22;7346;50.846;4.388;2022-10-16T00:20:22;15.10;99.90
14519;DHT22;7346;50.846;4.388;2022-10-16T00:22:49;15.00;99.90
14519;DHT22;7346;50.846;4.388;2022-10-16T00:25:21;15.00;99.90
14519;DHT22;7346;50.846;4.388;2022-10-16T00:27:48;15.00;99.90
14519;DHT22;7346;50.846;4.388;2022-10-16T00:30:14;15.00;99.90
14519;DHT22;7346;50.846;4.388;2022-10-16T00:32:41;15.00;99.90
14519;DHT22;7346;50.846;4.388;2022-10-16T00:35:08;14.90;99.90
14519;DHT22;7346;50.846;4.388;2022-10-16T00:37:35;14.90;99.90
14519;DHT22;7346;50.846;4.388;2022-10-16T00:40:03;14.90;99.90
14519;DHT22;7346;50.846;4.388;2022-10-16T00:42:31;14.90;99.90
14519;DHT22;7346;50.846;4.388;2022-10-16T00:44:58;14.90;99.90
14519;DHT22;7346;50.846;4.388;2022-10-16T00:47:28;14.90;99.90
14519;DHT22;7346;50.846;4.388;2022-10-16T00:50:00;14.90;99.90
14519;DHT22;7346;50.846;4.388;2022-10-16T00:52:28;14.90;99.90
14519;DHT22;7346;50.846;4.388;2022-10-16T00:55:09;14.80;99.90
14519;DHT22;7346;50.846;4.388;2022-10-16T00:57:38;14.90;99.90
14519;DHT22;7346;50.846;4.388;2022-10-16T01:00:08;14.90;99.90
14519;DHT22;7346;50.846;4.388;2022-10-16T01:02:36;14.80;99.90
14519;DHT22;7346;50.846;4.388;2022-10-16T01:05:04;14.80;99.90
14519;DHT22;7346;50.846;4.388;2022-10-16T01:07:39;14.80;99.90
14519;DHT22;7346;50.846;4.388;2022-10-16T01:10:22;14.70;99.90
14519;DHT22;7346;50.846;4.388;2022-10-16T01:13:05;14.70;99.90
14519;DHT22;7346;50.846;4.388;2022-10-16T01:15:37;14.70;99.90
14519;DHT22;7346;50.846;4.388;2022-10-16T01:18:08;14.70;99.90
14519;DHT22;7346;50.846;4.388;2022-10-16T01:20:42;14.70;99.90
14519;DHT22;7346;50.846;4.388;2022-10-16T01:23:21;14.70;99.90
14519;DHT22;7346;50.846;4.388;2022-10-16T01:26:13;14.70;99.90
14519;DHT22;7346;50.846;4.388;2022-10-16T01:28:49;14.80;99.90
14519;DHT22;7346;50.846;4.388;2022-10-16T01:31:24;14.70;99.90
14519;DHT22;7346;50.846;4.388;2022-10-16T01:33:56;14.70;99.90
14519;DHT22;7346;50.846;4.388;2022-10-16T01:36:26;14.70;99.90
14519;DHT22;7346;50.846;4.388;2022-10-16T01:38:56;14.70;99.90
14519;DHT22;7346;50.846;4.388;2022-10-16T01:41:32;14.70;99.90
14519;DHT22;7346;50.846;4.388;2022-10-16T01:44:04;14.70;99.90
14519;DHT22;7346;50.846;4.388;2022-10-16T01:46:33;14.70;99.90
14519;DHT22;7346;50.846;4.388;2022-10-16T01:49:02;14.60;99.90
14519;DHT22;7346;50.846;4.388;2022-10-16T01:51:30;14.70;99.90
14519;DHT22;7346;50.846;4.388;2022-10-16T01:53:59;14.70;99.90
14519;DHT22;7346;50.846;4.388;2022-10-16T01:56:27;14.60;99.90
14519;DHT22;7346;50.846;4.388;2022-10-16T01:58:58;14.60;99.90
14519;DHT22;7346;50.846;4.388;2022-10-16T02:01:31;14.60;99.90
14519;DHT22;7346;50.846;4.388;2022-10-16T02:04:03;14.60;99.90
14519;DHT22;7346;50.846;4.388;2022-10-16T02:06:32;14.60;99.90
14519;DHT22;7346;50.846;4.388;2022-10-16T02:09:00;14.60;99.90
14519;DHT22;7346;50.846;4.388;2022-10-16T02:11:27;14.60;99.90
14519;DHT22;7346;50.846;4.388;2022-10-16T02:13:58;14.60;99.90
14519;DHT22;7346;50.846;4.388;2022-10-16T02:16:34;14.50;99.90
14519;DHT22;7346;50.846;4.388;2022-10-16T02:19:02;14.50;99.90
14519;DHT22;7346;50.846;4.388;2022-10-16T02:21:33;14.50;99.90
14519;DHT22;7346;50.846;4.388;2022-10-16T02:24:09;14.50;99.90
14519;DHT22;7346;50.846;4.388;2022-10-16T02:26:42;14.50;99.90
14519;DHT22;7346;50.846;4.388;2022-10-16T02:29:14;14.50;99.90
14519;DHT22;7346;50.846;4.388;2022-10-16T02:31:46;14.50;99.90
14519;DHT22;7346;50.846;4.388;2022-10-16T02:34:16;14.50;99.90
14519;DHT22;7346;50.846;4.388;2022-10-16T02:36:44;14.50;99.90
14519;DHT22;7346;50.846;4.388;2022-10-16T02:39:13;14.40;99.90
14519;DHT22;7346;50.846;4.388;2022-10-16T02:41:41;14.50;99.90
14519;DHT22;7346;50.846;4.388;2022-10-16T02:44:07;14.50;99.90
14519;DHT22;7346;50.846;4.388;2022-10-16T02:46:34;14.50;99.90
14519;DHT22;7346;50.846;4.388;2022-10-16T02:49:03;14.40;99.90
14519;DHT22;7346;50.846;4.388;2022-10-16T02:51:30;14.40;99.90
14519;DHT22;7346;50.846;4.388;2022-10-16T02:53:57;14.40;99.90
14519;DHT22;7346;50.846;4.388;2022-10-16T02:56:24;14.40;99.90
14519;DHT22;7346;50.846;4.388;2022-10-16T02:58:51;14.40;99.90
14519;DHT22;7346;50.846;4.388;2022-10-16T03:01:21;14.40;99.90
14519;DHT22;7346;50.846;4.388;2022-10-16T03:03:48;14.50;99.90
14519;DHT22;7346;50.846;4.388;2022-10-16T03:06:16;14.50;99.90
14519;DHT22;7346;50.846;4.388;2022-10-16T03:08:43;14.50;99.90
14519;DHT22;7346;50.846;4.388;2022-10-16T03:11:10;14.50;99.90
14519;DHT22;7346;50.846;4.388;2022-10-16T03:13:37;14.40;99.90
14519;DHT22;7346;50.846;4.388;2022-10-16T03:16:04;14.40;99.90
14519;DHT22;7346;50.846;4.388;2022-10-16T03:18:31;14.50;99.90
14519;DHT22;7346;50.846;4.388;2022-10-16T03:20:58;14.50;99.90
14519;DHT22;7346;50.846;4.388;2022-10-16T03:23:26;14.50;99.90
14519;DHT22;7346;50.846;4.388;2022-10-16T03:25:54;14.50;99.90
14519;DHT22;7346;50.846;4.388;2022-10-16T03:28:21;14.50;99.90
14519;DHT22;7346;50.846;4.388;2022-10-16T03:30:48;14.50;99.90
14519;DHT22;7346;50.846;4.388;2022-10-16T03:33:15;14.50;99.90
14519;DHT22;7346;50.846;4.388;2022-10-16T03:35:42;14.50;99.90
14519;DHT22;7346;50.846;4.388;2022-10-16T03:38:09;14.50;99.90
14519;DHT22;7346;50.846;4.388;2022-10-16T03:40:37;14.50;99.90
14519;DHT22;7346;50.846;4.388;2022-10-16T03:43:04;14.50;99.90
14519;DHT22;7346;50.846;4.388;2022-10-16T03:45:31;14.40;99.90
14519;DHT22;7346;50.846;4.388;2022-10-16T03:47:58;14.50;99.90
14519;DHT22;7346;50.846;4.388;2022-10-16T03:50:25;14.40;99.90
14519;DHT22;7346;50.846;4.388;2022-10-16T03:52:52;14.40;99.90
14519;DHT22;7346;50.846;4.388;2022-10-16T03:55:19;14.50;99.90
14519;DHT22;7346;50.846;4.388;2022-10-16T03:57:47;14.50;99.90
14519;DHT22;7346;50.846;4.388;2022-10-16T04:00:15;14.50;99.90
14519;DHT22;7346;50.846;4.388;2022-10-16T04:02:42;14.50;99.90
14519;DHT22;7346;50.846;4.388;2022-10-16T04:05:09;14.50;99.90
14519;DHT22;7346;50.846;4.388;2022-10-16T04:07:36;14.40;99.90
14519;DHT22;7346;50.846;4.388;2022-10-16T04:10:04;14.50;99.90
14519;DHT22;7346;50.846;4.388;2022-10-16T04:12:31;14.40;99.90
14519;DHT22;7346;50.846;4.388;2022-10-16T04:15:00;14.40;99.90
14519;DHT22;7346;50.846;4.388;2022-10-16T04:17:27;14.40;99.90
14519;DHT22;7346;50.846;4.388;2022-10-16T04:19:54;14.40;99.90
14519;DHT22;7346;50.846;4.388;2022-10-16T04:22:21;14.40;99.90
14519;DHT22;7346;50.846;4.388;2022-10-16T04:24:48;14.40;99.90
14519;DHT22;7346;50.846;4.388;2022-10-16T04:27:15;14.40;99.90
14519;DHT22;7346;50.846;4.388;2022-10-16T04:29:42;14.40;99.90
14519;DHT22;7346;50.846;4.388;2022-10-16T04:32:10;14.30;99.90
14519;DHT22;7346;50.846;4.388;2022-10-16T04:34:39;14.40;99.90
14519;DHT22;7346;50.846;4.388;2022-10-16T04:37:06;14.40;99.90
14519;DHT22;7346;50.846;4.388;2022-10-16T04:39:33;14.30;99.90
14519;DHT22;7346;50.846;4.388;2022-10-16T04:42:00;14.40;99.90
14519;DHT22;7346;50.846;4.388;2022-10-16T04:44:27;14.30;99.90
14519;DHT22;7346;50.846;4.388;2022-10-16T04:46:55;14.30;99.90
14519;DHT22;7346;50.846;4.388;2022-10-16T04:49:23;14.30;99.90
14519;DHT22;7346;50.846;4.388;2022-10-16T04:51:53;14.30;99.90
14519;DHT22;7346;50.846;4.388;2022-10-16T04:54:20;14.30;99.90
14519;DHT22;7346;50.846;4.388;2022-10-16T04:56:46;14.30;99.90
14519;DHT22;7346;50.846;4.388;2022-10-16T04:59:16;14.30;99.90
14519;DHT22;7346;50.846;4.388;2022-10-16T05:01:43;14.30;99.90
14519;DHT22;7346;50.846;4.388;2022-10-16T05:04:10;14.30;99.90
14519;DHT22;7346;50.846;4.388;2022-10-16T05:06:39;14.30;99.90
14519;DHT22;7346;50.846;4.388;2022-10-16T05:09:06;14.30;99.90
14519;DHT22;7346;50.846;4.388;2022-10-16T05:11:33;14.30;99.90
14519;DHT22;7346;50.846;4.388;2022-10-16T05:14:00;14.30;99.90
14519;DHT22;7346;50.846;4.388;2022-10-16T05:16:28;14.30;99.90
14519;DHT22;7346;50.846;4.388;2022-10-16T05:18:55;14.30;99.90
14519;DHT22;7346;50.846;4.388;2022-10-16T05:21:23;14.30;99.90
14519;DHT22;7346;50.846;4.388;2022-10-16T05:23:53;14.20;99.90
14519;DHT22;7346;50.846;4.388;2022-10-16T05:26:20;14.30;99.90
14519;DHT22;7346;50.846;4.388;2022-10-16T05:28:47;14.30;99.90
14519;DHT22;7346;50.846;4.388;2022-10-16T05:31:15;14.20;99.90
14519;DHT22;7346;50.846;4.388;2022-10-16T05:33:42;14.20;99.90
14519;DHT22;7346;50.846;4.388;2022-10-16T05:36:10;14.20;99.90
14519;DHT22;7346;50.846;4.388;2022-10-16T05:38:37;14.20;99.90
14519;DHT22;7346;50.846;4.388;2022-10-16T05:41:06;14.20;99.90
14519;DHT22;7346;50.846;4.388;2022-10-16T05:43:33;14.10;99.90
14519;DHT22;7346;50.846;4.388;2022-10-16T05:46:02;14.10;99.90
14519;DHT22;7346;50.846;4.388;2022-10-16T05:48:29;14.10;99.90
14519;DHT22;7346;50.846;4.388;2022-10-16T05:50:57;14.10;99.90
14519;DHT22;7346;50.846;4.388;2022-10-16T05:53:25;14.10;99.90
14519;DHT22;7346;50.846;4.388;2022-10-16T05:55:53;14.20;99.90
14519;DHT22;7346;50.846;4.388;2022-10-16T05:58:22;14.20;99.90
14519;DHT22;7346;50.846;4.388;2022-10-16T06:00:56;14.20;99.90
14519;DHT22;7346;50.846;4.388;2022-10-16T06:03:23;14.10;99.90
14519;DHT22;7346;50.846;4.388;2022-10-16T06:05:51;14.10;99.90
14519;DHT22;7346;50.846;4.388;2022-10-16T06:08:19;14.10;99.90
14519;DHT22;7346;50.846;4.388;2022-10-16T06:10:47;14.10;99.90
14519;DHT22;7346;50.846;4.388;2022-10-16T06:13:14;14.10;99.90
14519;DHT22;7346;50.846;4.388;2022-10-16T06:15:43;14.20;99.90
14519;DHT22;7346;50.846;4.388;2022-10-16T06:18:10;14.20;99.90
14519;DHT22;7346;50.846;4.388;2022-10-16T06:20:37;14.20;99.90
14519;DHT22;7346;50.846;4.388;2022-10-16T06:23:04;14.20;99.90
14519;DHT22;7346;50.846;4.388;2022-10-16T06:25:35;14.20;99.90
14519;DHT22;7346;50.846;4.388;2022-10-16T06:28:02;14.30;99.90
14519;DHT22;7346;50.846;4.388;2022-10-16T06:30:32;14.30;99.90
14519;DHT22;7346;50.846;4.388;2022-10-16T06:33:03;14.30;99.90
14519;DHT22;7346;50.846;4.388;2022-10-16T06:35:30;14.30;99.90
14519;DHT22;7346;50.846;4.388;2022-10-16T06:37:57;14.30;99.90
14519;DHT22;7346;50.846;4.388;2022-10-16T06:40:24;14.30;99.90
14519;DHT22;7346;50.846;4.388;2022-10-16T06:42:51;14.30;99.90
14519;DHT22;7346;50.846;4.388;2022-10-16T06:45:21;14.30;99.90
14519;DHT22;7346;50.846;4.388;2022-10-16T06:47:48;14.40;99.90
14519;DHT22;7346;50.846;4.388;2022-10-16T06:50:16;14.40;99.90
14519;DHT22;7346;50.846;4.388;2022-10-16T06:52:44;14.40;99.90
14519;DHT22;7346;50.846;4.388;2022-10-16T06:55:11;14.50;99.90
14519;DHT22;7346;50.846;4.388;2022-10-16T06:57:38;14.60;99.90
14519;DHT22;7346;50.846;4.388;2022-10-16T07:00:06;14.60;99.90
14519;DHT22;7346;50.846;4.388;2022-10-16T07:02:33;14.60;99.90
14519;DHT22;7346;50.846;4.388;2022-10-16T07:05:01;14.70;99.90
14519;DHT22;7346;50.846;4.388;2022-10-16T07:07:29;14.70;99.90
14519;DHT22;7346;50.846;4.388;2022-10-16T07:09:57;14.70;99.90
14519;DHT22;7346;50.846;4.388;2022-10-16T07:12:24;14.60;99.90
14519;DHT22;7346;50.846;4.388;2022-10-16T07:14:55;14.60;99.90
14519;DHT22;7346;50.846;4.388;2022-10-16T07:17:22;14.70;99.90
14519;DHT22;7346;50.846;4.388;2022-10-16T07:19:49;14.70;99.90
14519;DHT22;7346;50.846;4.388;2022-10-16T07:22:18;14.70;99.90
14519;DHT22;7346;50.846;4.388;2022-10-16T07:24:51;14.80;99.90
14519;DHT22;7346;50.846;4.388;2022-10-16T07:27:22;14.80;99.90
14519;DHT22;7346;50.846;4.388;2022-10-16T07:29:50;14.80;99.90
14519;DHT22;7346;50.846;4.388;2022-10-16T07:32:17;14.80;99.90
14519;DHT22;7346;50.846;4.388;2022-10-16T07:34:45;14.80;99.90
14519;DHT22;7346;50.846;4.388;2022-10-16T07:37:30;14.80;99.90
14519;DHT22;7346;50.846;4.388;2022-10-16T07:40:13;14.90;99.90
14519;DHT22;7346;50.846;4.388;2022-10-16T07:42:40;14.90;99.90
14519;DHT22;7346;50.846;4.388;2022-10-16T07:45:07;14.90;99.90
14519;DHT22;7346;50.846;4.388;2022-10-16T07:47:35;14.90;99.90
14519;DHT22;7346;50.846;4.388;2022-10-16T07:50:02;15.00;99.90
14519;DHT22;7346;50.846;4.388;2022-10-16T07:52:29;15.00;99.90
14519;DHT22;7346;50.846;4.388;2022-10-16T07:54:56;15.00;99.90
14519;DHT22;7346;50.846;4.388;2022-10-16T07:57:25;15.10;99.90
14519;DHT22;7346;50.846;4.388;2022-10-16T07:59:52;15.10;99.90
14519;DHT22;7346;50.846;4.388;2022-10-16T08:02:19;15.20;99.90
14519;DHT22;7346;50.846;4.388;2022-10-16T08:04:46;15.20;99.90
14519;DHT22;7346;50.846;4.388;2022-10-16T08:07:14;15.20;99.90
14519;DHT22;7346;50.846;4.388;2022-10-16T08:09:41;15.30;99.90
14519;DHT22;7346;50.846;4.388;2022-10-16T08:12:11;15.30;99.90
14519;DHT22;7346;50.846;4.388;2022-10-16T08:14:40;15.40;99.90
14519;DHT22;7346;50.846;4.388;2022-10-16T08:17:07;15.40;99.90
14519;DHT22;7346;50.846;4.388;2022-10-16T08:19:34;15.50;99.90
14519;DHT22;7346;50.846;4.388;2022-10-16T08:22:10;15.50;99.90
14519;DHT22;7346;50.846;4.388;2022-10-16T08:24:37;15.50;99.90
14519;DHT22;7346;50.846;4.388;2022-10-16T08:27:04;15.60;99.90
14519;DHT22;7346;50.846;4.388;2022-10-16T08:29:32;15.60;99.90
14519;DHT22;7346;50.846;4.388;2022-10-16T08:32:00;15.60;99.90
14519;DHT22;7346;50.846;4.388;2022-10-16T08:34:27;15.60;99.90
14519;DHT22;7346;50.846;4.388;2022-10-16T08:36:54;15.70;99.90
14519;DHT22;7346;50.846;4.388;2022-10-16T08:39:22;15.80;99.90
14519;DHT22;7346;50.846;4.388;2022-10-16T08:42:18;15.80;99.90
14519;DHT22;7346;50.846;4.388;2022-10-16T08:45:14;15.90;99.90
14519;DHT22;7346;50.846;4.388;2022-10-16T08:47:49;15.90;99.90
14519;DHT22;7346;50.846;4.388;2022-10-16T08:50:22;15.90;99.90
14519;DHT22;7346;50.846;4.388;2022-10-16T08:52:51;16.10;99.90
14519;DHT22;7346;50.846;4.388;2022-10-16T08:55:30;16.20;99.90
14519;DHT22;7346;50.846;4.388;2022-10-16T08:58:00;16.40;99.90
14519;DHT22;7346;50.846;4.388;2022-10-16T09:00:28;16.60;99.90
14519;DHT22;7346;50.846;4.388;2022-10-16T09:03:05;16.80;99.90
14519;DHT22;7346;50.846;4.388;2022-10-16T09:05:54;16.90;99.90
14519;DHT22;7346;50.846;4.388;2022-10-16T09:08:30;16.90;99.90
14519;DHT22;7346;50.846;4.388;2022-10-16T09:11:05;16.90;99.90
14519;DHT22;7346;50.846;4.388;2022-10-16T09:13:43;17.00;99.90
14519;DHT22;7346;50.846;4.388;2022-10-16T09:16:18;16.90;99.90
14519;DHT22;7346;50.846;4.388;2022-10-16T09:18:54;17.00;99.90
14519;DHT22;7346;50.846;4.388;2022-10-16T09:21:27;17.00;99.90
14519;DHT22;7346;50.846;4.388;2022-10-16T09:23:59;17.00;99.90
14519;DHT22;7346;50.846;4.388;2022-10-16T09:26:29;17.10;99.90
14519;DHT22;7346;50.846;4.388;2022-10-16T09:28:56;17.10;99.90
14519;DHT22;7346;50.846;4.388;2022-10-16T09:31:23;17.20;99.90
14519;DHT22;7346;50.846;4.388;2022-10-16T09:33:55;17.30;99.90
14519;DHT22;7346;50.846;4.388;2022-10-16T09:36:24;17.30;99.90
14519;DHT22;7346;50.846;4.388;2022-10-16T09:39:02;17.40;99.90
14519;DHT22;7346;50.846;4.388;2022-10-16T09:41:33;17.50;99.90
14519;DHT22;7346;50.846;4.388;2022-10-16T09:44:04;17.80;99.90
14519;DHT22;7346;50.846;4.388;2022-10-16T09:46:35;17.80;99.90
14519;DHT22;7346;50.846;4.388;2022-10-16T09:49:21;18.00;99.90
14519;DHT22;7346;50.846;4.388;2022-10-16T09:52:02;18.30;99.90
14519;DHT22;7346;50.846;4.388;2022-10-16T09:54:35;18.50;99.90
14519;DHT22;7346;50.846;4.388;2022-10-16T09:57:06;18.50;99.90
14519;DHT22;7346;50.846;4.388;2022-10-16T09:59:45;18.40;99.90
14519;DHT22;7346;50.846;4.388;2022-10-16T10:02:14;18.10;99.90
14519;DHT22;7346;50.846;4.388;2022-10-16T10:04:50;18.10;99.90
14519;DHT22;7346;50.846;4.388;2022-10-16T10:07:24;18.00;99.90
14519;DHT22;7346;50.846;4.388;2022-10-16T10:09:52;17.90;99.90
14519;DHT22;7346;50.846;4.388;2022-10-16T10:12:25;17.90;99.90
14519;DHT22;7346;50.846;4.388;2022-10-16T10:15:04;17.90;99.90
14519;DHT22;7346;50.846;4.388;2022-10-16T10:17:31;18.10;99.90
14519;DHT22;7346;50.846;4.388;2022-10-16T10:20:23;18.10;99.90
14519;DHT22;7346;50.846;4.388;2022-10-16T10:22:52;18.10;99.90
14519;DHT22;7346;50.846;4.388;2022-10-16T10:25:44;18.10;99.90
14519;DHT22;7346;50.846;4.388;2022-10-16T10:28:51;18.10;99.90
14519;DHT22;7346;50.846;4.388;2022-10-16T10:31:30;18.10;99.90
14519;DHT22;7346;50.846;4.388;2022-10-16T10:34:16;18.10;99.90
14519;DHT22;7346;50.846;4.388;2022-10-16T10:37:13;18.20;99.90
14519;DHT22;7346;50.846;4.388;2022-10-16T10:40:04;18.20;99.90
14519;DHT22;7346;50.846;4.388;2022-10-16T10:42:53;18.20;99.90
14519;DHT22;7346;50.846;4.388;2022-10-16T10:45:35;18.10;99.90
14519;DHT22;7346;50.846;4.388;2022-10-16T10:48:21;18.20;99.90
14519;DHT22;7346;50.846;4.388;2022-10-16T10:50:54;18.40;99.90
14519;DHT22;7346;50.846;4.388;2022-10-16T10:53:47;18.60;99.90
14519;DHT22;7346;50.846;4.388;2022-10-16T10:56:45;18.60;99.90
14519;DHT22;7346;50.846;4.388;2022-10-16T10:59:31;18.60;99.90
14519;DHT22;7346;50.846;4.388;2022-10-16T11:02:15;18.70;99.90
14519;DHT22;7346;50.846;4.388;2022-10-16T11:05:31;18.70;99.90
14519;DHT22;7346;50.846;4.388;2022-10-16T11:08:03;18.80;99.90
14519;DHT22;7346;50.846;4.388;2022-10-16T11:13:42;18.70;99.90
14519;DHT22;7346;50.846;4.388;2022-10-16T11:16:23;18.50;99.90
14519;DHT22;7346;50.846;4.388;2022-10-16T11:18:59;18.40;99.90
14519;DHT22;7346;50.846;4.388;2022-10-16T11:21:33;18.40;99.90
14519;DHT22;7346;50.846;4.388;2022-10-16T11:24:16;18.40;99.90
14519;DHT22;7346;50.846;4.388;2022-10-16T11:27:04;18.40;99.90
14519;DHT22;7346;50.846;4.388;2022-10-16T11:29:45;18.70;99.90
14519;DHT22;7346;50.846;4.388;2022-10-16T11:32:21;19.10;99.90
14519;DHT22;7346;50.846;4.388;2022-10-16T11:34:53;19.10;99.90
14519;DHT22;7346;50.846;4.388;2022-10-16T11:37:29;18.90;99.90
14519;DHT22;7346;50.846;4.388;2022-10-16T11:40:18;18.90;99.90
14519;DHT22;7346;50.846;4.388;2022-10-16T11:42:55;18.90;99.90
14519;DHT22;7346;50.846;4.388;2022-10-16T11:45:45;19.10;99.90
14519;DHT22;7346;50.846;4.388;2022-10-16T11:48:42;19.40;99.90
14519;DHT22;7346;50.846;4.388;2022-10-16T11:51:20;19.60;99.90
14519;DHT22;7346;50.846;4.388;2022-10-16T11:53:55;19.40;99.90
14519;DHT22;7346;50.846;4.388;2022-10-16T11:56:26;19.20;99.90
14519;DHT22;7346;50.846;4.388;2022-10-16T11:58:58;19.20;99.90
14519;DHT22;7346;50.846;4.388;2022-10-16T12:01:33;19.10;99.90
14519;DHT22;7346;50.846;4.388;2022-10-16T12:04:19;19.10;99.90
14519;DHT22;7346;50.846;4.388;2022-10-16T12:07:04;19.30;99.90
14519;DHT22;7346;50.846;4.388;2022-10-16T12:09:36;19.40;99.90
14519;DHT22;7346;50.846;4.388;2022-10-16T12:12:23;19.80;99.90
14519;DHT22;7346;50.846;4.388;2022-10-16T12:15:00;19.80;99.90
14519;DHT22;7346;50.846;4.388;2022-10-16T12:17:37;19.60;99.90
14519;DHT22;7346;50.846;4.388;2022-10-16T12:20:21;19.60;99.90
14519;DHT22;7346;50.846;4.388;2022-10-16T12:22:51;19.80;99.90
14519;DHT22;7346;50.846;4.388;2022-10-16T12:25:24;19.60;99.90
14519;DHT22;7346;50.846;4.388;2022-10-16T12:28:02;19.50;99.90
14519;DHT22;7346;50.846;4.388;2022-10-16T12:30:34;19.40;99.90
14519;DHT22;7346;50.846;4.388;2022-10-16T12:33:19;19.60;99.90
14519;DHT22;7346;50.846;4.388;2022-10-16T12:35:54;19.50;99.90
14519;DHT22;7346;50.846;4.388;2022-10-16T12:38:28;19.90;99.90
14519;DHT22;7346;50.846;4.388;2022-10-16T12:40:59;20.00;99.90
14519;DHT22;7346;50.846;4.388;2022-10-16T12:43:38;20.20;99.90
14519;DHT22;7346;50.846;4.388;2022-10-16T12:46:40;20.10;99.90
14519;DHT22;7346;50.846;4.388;2022-10-16T12:49:23;20.00;99.90
14519;DHT22;7346;50.846;4.388;2022-10-16T12:51:56;19.90;99.90
14519;DHT22;7346;50.846;4.388;2022-10-16T12:54:28;20.00;99.90
14519;DHT22;7346;50.846;4.388;2022-10-16T12:57:19;19.80;99.90
14519;DHT22;7346;50.846;4.388;2022-10-16T13:00:01;19.50;99.90
14519;DHT22;7346;50.846;4.388;2022-10-16T13:02:53;19.50;99.90
14519;DHT22;7346;50.846;4.388;2022-10-16T13:05:38;19.60;99.90
14519;DHT22;7346;50.846;4.388;2022-10-16T13:08:41;19.80;99.90
14519;DHT22;7346;50.846;4.388;2022-10-16T13:11:20;20.00;99.90
14519;DHT22;7346;50.846;4.388;2022-10-16T13:14:09;19.90;99.90
14519;DHT22;7346;50.846;4.388;2022-10-16T13:16:53;20.20;99.90
14519;DHT22;7346;50.846;4.388;2022-10-16T13:19:29;20.00;99.90
14519;DHT22;7346;50.846;4.388;2022-10-16T13:22:05;19.80;99.90
14519;DHT22;7346;50.846;4.388;2022-10-16T13:24:47;19.90;99.90
14519;DHT22;7346;50.846;4.388;2022-10-16T13:27:23;19.90;99.90
14519;DHT22;7346;50.846;4.388;2022-10-16T13:30:08;19.90;99.90
14519;DHT22;7346;50.846;4.388;2022-10-16T13:32:43;19.90;99.90
14519;DHT22;7346;50.846;4.388;2022-10-16T13:35:22;20.10;99.90
14519;DHT22;7346;50.846;4.388;2022-10-16T13:38:03;20.10;99.90
14519;DHT22;7346;50.846;4.388;2022-10-16T13:40:33;20.10;99.90
14519;DHT22;7346;50.846;4.388;2022-10-16T13:43:01;20.10;99.90
14519;DHT22;7346;50.846;4.388;2022-10-16T13:45:33;20.20;99.90
14519;DHT22;7346;50.846;4.388;2022-10-16T13:48:04;20.30;99.90
14519;DHT22;7346;50.846;4.388;2022-10-16T13:50:35;20.60;99.90
14519;DHT22;7346;50.846;4.388;2022-10-16T13:53:13;20.80;99.90
14519;DHT22;7346;50.846;4.388;2022-10-16T13:55:41;20.40;99.90
14519;DHT22;7346;50.846;4.388;2022-10-16T13:58:13;20.40;99.90
14519;DHT22;7346;50.846;4.388;2022-10-16T14:00:56;20.30;99.90
14519;DHT22;7346;50.846;4.388;2022-10-16T14:03:24;20.20;99.90
14519;DHT22;7346;50.846;4.388;2022-10-16T14:05:55;20.20;99.90
14519;DHT22;7346;50.846;4.388;2022-10-16T14:08:27;20.10;99.90
14519;DHT22;7346;50.846;4.388;2022-10-16T14:10:56;20.10;99.90
14519;DHT22;7346;50.846;4.388;2022-10-16T14:13:31;19.90;99.90
14519;DHT22;7346;50.846;4.388;2022-10-16T14:16:02;19.70;99.90
14519;DHT22;7346;50.846;4.388;2022-10-16T14:18:32;19.80;99.90
14519;DHT22;7346;50.846;4.388;2022-10-16T14:21:04;20.10;99.90
14519;DHT22;7346;50.846;4.388;2022-10-16T14:23:40;20.30;99.90
14519;DHT22;7346;50.846;4.388;2022-10-16T14:26:15;20.60;99.90
14519;DHT22;7346;50.846;4.388;2022-10-16T14:28:43;20.40;99.90
14519;DHT22;7346;50.846;4.388;2022-10-16T14:31:25;20.40;99.90
14519;DHT22;7346;50.846;4.388;2022-10-16T14:33:53;20.50;99.90
14519;DHT22;7346;50.846;4.388;2022-10-16T14:36:22;20.60;99.90
14519;DHT22;7346;50.846;4.388;2022-10-16T14:38:57;20.60;99.90
14519;DHT22;7346;50.846;4.388;2022-10-16T14:41:25;20.60;99.90
14519;DHT22;7346;50.846;4.388;2022-10-16T14:43:54;20.70;99.90
14519;DHT22;7346;50.846;4.388;2022-10-16T14:46:23;20.70;99.90
14519;DHT22;7346;50.846;4.388;2022-10-16T14:49:00;20.70;99.90
14519;DHT22;7346;50.846;4.388;2022-10-16T14:51:28;20.80;99.90
14519;DHT22;7346;50.846;4.388;2022-10-16T14:53:57;20.70;99.90
14519;DHT22;7346;50.846;4.388;2022-10-16T14:56:25;20.80;99.90
14519;DHT22;7346;50.846;4.388;2022-10-16T14:58:55;20.90;99.90
14519;DHT22;7346;50.846;4.388;2022-10-16T15:01:22;20.90;99.90
14519;DHT22;7346;50.846;4.388;2022-10-16T15:03:49;21.00;99.90
14519;DHT22;7346;50.846;4.388;2022-10-16T15:06:17;21.10;99.90
14519;DHT22;7346;50.846;4.388;2022-10-16T15:08:44;20.40;99.90
14519;DHT22;7346;50.846;4.388;2022-10-16T15:11:14;20.30;99.90
14519;DHT22;7346;50.846;4.388;2022-10-16T15:13:42;20.30;99.90
14519;DHT22;7346;50.846;4.388;2022-10-16T15:16:11;20.40;99.90
14519;DHT22;7346;50.846;4.388;2022-10-16T15:18:38;20.40;99.90
14519;DHT22;7346;50.846;4.388;2022-10-16T15:21:05;20.60;99.90
14519;DHT22;7346;50.846;4.388;2022-10-16T15:23:32;20.50;99.90
14519;DHT22;7346;50.846;4.388;2022-10-16T15:26:00;20.60;99.90
14519;DHT22;7346;50.846;4.388;2022-10-16T15:28:28;20.60;99.90
14519;DHT22;7346;50.846;4.388;2022-10-16T15:30:56;20.50;99.90
14519;DHT22;7346;50.846;4.388;2022-10-16T15:33:25;20.50;99.90
14519;DHT22;7346;50.846;4.388;2022-10-16T15:35:54;20.40;99.90
14519;DHT22;7346;50.846;4.388;2022-10-16T15:38:22;20.40;99.90
14519;DHT22;7346;50.846;4.388;2022-10-16T15:40:50;20.50;99.90
14519;DHT22;7346;50.846;4.388;2022-10-16T15:43:17;20.50;99.90
14519;DHT22;7346;50.846;4.388;2022-10-16T15:45:57;20.60;99.90
14519;DHT22;7346;50.846;4.388;2022-10-16T15:48:25;20.60;99.90
14519;DHT22;7346;50.846;4.388;2022-10-16T15:50:52;20.50;99.90
14519;DHT22;7346;50.846;4.388;2022-10-16T15:53:19;20.30;99.90
14519;DHT22;7346;50.846;4.388;2022-10-16T15:55:46;20.30;99.90
14519;DHT22;7346;50.846;4.388;2022-10-16T15:58:13;20.10;99.90
14519;DHT22;7346;50.846;4.388;2022-10-16T16:00:40;20.10;99.90
14519;DHT22;7346;50.846;4.388;2022-10-16T16:03:08;20.10;99.90
14519;DHT22;7346;50.846;4.388;2022-10-16T16:05:38;20.10;99.90
14519;DHT22;7346;50.846;4.388;2022-10-16T16:08:05;20.10;99.90
14519;DHT22;7346;50.846;4.388;2022-10-16T16:10:32;20.10;99.90
14519;DHT22;7346;50.846;4.388;2022-10-16T16:12:59;20.10;99.90
14519;DHT22;7346;50.846;4.388;2022-10-16T16:15:26;20.20;99.90
14519;DHT22;7346;50.846;4.388;2022-10-16T16:17:53;20.10;99.90